Jur'Evec, Russia
Current Conditions -  °F | °C
As of 6:30 PM on Wednesday 22 Oct 2014 (Local Time) from UWGG Reporting Station
Snow Showers Snow Showers  
Wind Chill: 11°   Ceiling: 1100
Heat Index: 19°   Visibility: 3mi
Dew Point: 16°   Wind: 7mph
Humidity: 86%   Direction: 310°NW
Pressure: 29.83"   Gusts: NA
Location:  57.33°N, 43.12°E
Report Text: UWGG 221530Z 31003MPS 4900 -SHSN OVC011CB M07/M09 Q1010 TEMPO31006G11MPS 1000 SHSN BLSN OVC007CB 36490338 RMK QFE750
Loading
Personal Weather Stations






























Interactive Weather Map
Tropical Storm Tracking
New forecast layout! Learn more

10-Day Weather Forecast

Advertisements
Track Severe Weather on mobile